Time;durP1;ratioP1;P1;durP2;ratioP2;P2;SDS_P1;SDS_P2;PMS_P1;PMS_P2;Temp;Humidity;BMP_temperature;BMP_pressure;BME280_temperature;BME280_humidity;BME280_pressure;Samples;Min_cycle;Max_cycle;Signal;HPM_P1;HPM_P2
2022/12/22 03:26:22;;;;;;;87.63;30.13;;;7.90;99.90;;;;;;5159608;27;20057;-57
2022/12/22 03:28:48;;;;;;;80.55;29.90;;;7.70;99.90;;;;;;5159811;27;20050;-58
2022/12/22 03:31:13;;;;;;;78.53;28.88;;;8.30;99.90;;;;;;5160023;27;20039;-58
2022/12/22 03:33:39;;;;;;;80.45;28.58;;;8.10;99.90;;;;;;5159026;27;20089;-57
2022/12/22 03:36:06;;;;;;;79.10;30.20;;;7.60;99.90;;;;;;5159929;27;20073;-57
2022/12/22 03:38:32;;;;;;;77.25;29.45;;;8.20;99.90;;;;;;5140456;27;20055;-57
2022/12/22 03:40:58;;;;;;;70.93;27.83;;;8.20;99.90;;;;;;5160146;27;20039;-57
2022/12/22 03:46:29;;;;;;;67.00;27.60;;;8.20;99.90;;;;;;5159308;27;20064;-58
2022/12/22 03:49:09;;;;;;;70.13;27.40;;;7.70;99.90;;;;;;5159631;27;20053;-58
2022/12/22 03:51:40;;;;;;;78.82;28.17;;;8.10;99.90;;;;;;5140549;27;20038;-58
2022/12/22 03:54:06;;;;;;;66.25;26.83;;;8.10;99.90;;;;;;5159130;27;20049;-58
2022/12/22 03:56:31;;;;;;;72.25;26.92;;;8.10;99.90;;;;;;5143479;27;20075;-57
2022/12/22 03:58:57;;;;;;;70.55;27.48;;;8.10;99.90;;;;;;5138259;27;20046;-58
2022/12/22 04:01:23;;;;;;;65.43;25.38;;;7.90;99.90;;;;;;5138791;28;20095;-58
2022/12/22 04:03:49;;;;;;;68.57;25.65;;;8.00;99.90;;;;;;5138130;28;20075;-58
2022/12/22 04:06:16;;;;;;;62.17;26.17;;;8.00;99.90;;;;;;5138577;28;20121;-57
2022/12/22 04:08:41;;;;;;;65.03;24.38;;;8.10;99.90;;;;;;5138029;28;20050;-58
2022/12/22 04:13:54;;;;;;;68.13;26.20;;;7.70;99.90;;;;;;5137960;28;20047;-58
2022/12/22 04:16:20;;;;;;;62.13;25.33;;;8.00;99.90;;;;;;5138320;28;20134;-58
2022/12/22 04:18:46;;;;;;;65.53;23.65;;;7.60;99.90;;;;;;5138637;28;20043;-58
2022/12/22 04:21:11;;;;;;;57.30;25.17;;;7.70;99.90;;;;;;5138025;28;20054;-58
2022/12/22 04:23:37;;;;;;;69.45;26.05;;;8.00;99.90;;;;;;5138420;28;20094;-57
2022/12/22 04:26:03;;;;;;;62.08;25.52;;;7.60;99.90;;;;;;5138165;28;20043;-58
2022/12/22 04:28:28;;;;;;;60.00;25.77;;;7.80;99.90;;;;;;5138689;28;20047;-58
2022/12/22 04:30:54;;;;;;;58.85;24.33;;;8.00;99.90;;;;;;5138348;28;20058;-58
2022/12/22 04:33:20;;;;;;;61.70;24.92;;;7.50;99.90;;;;;;5137807;28;20039;-58
2022/12/22 04:35:46;;;;;;;63.05;25.15;;;8.00;99.90;;;;;;5138763;28;20124;-58
2022/12/22 04:38:12;;;;;;;58.63;24.48;;;7.70;99.90;;;;;;5137660;28;20066;-58
2022/12/22 04:40:38;;;;;;;53.17;23.17;;;7.90;99.90;;;;;;5138600;28;20039;-57
2022/12/22 04:43:03;;;;;;;59.03;25.38;;;7.80;99.90;;;;;;5137563;28;20035;-57
2022/12/22 04:45:29;;;;;;;64.78;26.45;;;8.00;99.90;;;;;;5138507;28;20070;-57
2022/12/22 04:47:54;;;;;;;64.63;24.33;;;7.90;99.90;;;;;;5138101;28;20047;-57
2022/12/22 04:50:20;;;;;;;62.58;26.00;;;7.60;99.90;;;;;;5137946;28;20049;-58
2022/12/22 04:52:46;;;;;;;61.30;25.40;;;7.90;99.90;;;;;;5138820;28;20086;-57
2022/12/22 04:55:11;;;;;;;57.60;24.67;;;7.40;99.90;;;;;;5142310;27;20039;-58
2022/12/22 04:57:37;;;;;;;64.88;24.02;;;7.80;99.90;;;;;;5159108;27;20034;-58
2022/12/22 05:00:04;;;;;;;59.38;24.40;;;7.60;99.90;;;;;;5161112;27;20038;-57
2022/12/22 05:02:30;;;;;;;66.88;26.35;;;7.50;99.90;;;;;;5162980;27;20154;-57
2022/12/22 05:04:55;;;;;;;57.00;24.92;;;7.40;99.90;;;;;;5162129;27;20051;-57
2022/12/22 05:07:21;;;;;;;63.95;26.25;;;7.60;99.90;;;;;;5162361;27;20053;-58
2022/12/22 05:09:47;;;;;;;64.38;25.88;;;7.90;99.90;;;;;;5162831;27;20031;-58
2022/12/22 05:14:56;;;;;;;61.78;25.77;;;7.50;99.90;;;;;;5147439;27;20086;-57
2022/12/22 05:17:22;;;;;;;61.53;25.25;;;7.70;99.90;;;;;;5149267;27;20034;-57
2022/12/22 05:19:48;;;;;;;65.28;25.05;;;7.80;99.90;;;;;;5158991;27;20050;-58
2022/12/22 05:22:13;;;;;;;62.45;24.60;;;7.80;99.90;;;;;;5158711;27;20039;-57
2022/12/22 05:24:39;;;;;;;71.97;28.50;;;7.70;99.90;;;;;;5157411;27;20042;-58
2022/12/22 05:27:05;;;;;;;67.35;27.27;;;7.40;99.90;;;;;;5158653;27;20039;-57
2022/12/22 05:29:30;;;;;;;70.53;28.38;;;7.40;99.90;;;;;;5157376;27;20039;-58
2022/12/22 05:31:56;;;;;;;65.75;27.17;;;7.70;99.90;;;;;;5158763;27;20049;-57
2022/12/22 05:34:22;;;;;;;77.75;28.10;;;7.50;99.90;;;;;;5157717;27;20094;-58
2022/12/22 05:36:47;;;;;;;66.13;25.65;;;7.70;99.90;;;;;;5158211;27;20133;-56
2022/12/22 05:39:13;;;;;;;67.47;27.30;;;7.30;99.90;;;;;;5157950;27;20047;-57
2022/12/22 05:41:39;;;;;;;60.83;25.25;;;7.30;99.90;;;;;;5157579;27;20130;-57
2022/12/22 05:44:04;;;;;;;56.50;24.15;;;7.60;99.90;;;;;;5155233;27;20039;-58
2022/12/22 05:46:30;;;;;;;59.45;26.40;;;7.60;99.90;;;;;;5146818;27;20050;-57
2022/12/22 05:48:56;;;;;;;70.43;26.10;;;7.50;99.90;;;;;;5147725;27;20039;-57
2022/12/22 05:51:23;;;;;;;57.03;24.58;;;7.00;99.90;;;;;;5145437;27;20050;-57
2022/12/22 05:53:48;;;;;;;53.10;23.65;;;7.10;99.90;;;;;;5147846;27;20039;-57
2022/12/22 05:56:14;;;;;;;62.22;25.83;;;7.00;99.90;;;;;;5145360;27;20548;-57
2022/12/22 05:58:39;;;;;;;57.28;23.15;;;7.00;99.90;;;;;;5147852;27;20042;-57
2022/12/22 06:01:05;;;;;;;63.42;23.17;;;7.00;99.90;;;;;;5145941;27;20042;-57
2022/12/22 06:03:31;;;;;;;64.50;23.33;;;7.10;99.90;;;;;;5138167;27;20058;-57
2022/12/22 06:05:57;;;;;;;59.42;23.40;;;6.70;99.90;;;;;;5137094;27;20035;-57
2022/12/22 06:08:23;;;;;;;67.00;24.52;;;7.20;99.90;;;;;;5120629;27;20562;-57
2022/12/22 06:10:49;;;;;;;53.15;21.70;;;7.10;99.90;;;;;;5142336;27;20039;-58
2022/12/22 06:13:15;;;;;;;52.28;21.40;;;7.10;99.90;;;;;;5143399;27;20058;-57
2022/12/22 06:15:40;;;;;;;57.95;21.55;;;7.00;99.90;;;;;;5144719;27;20049;-58
2022/12/22 06:18:06;;;;;;;55.40;21.05;;;7.10;99.90;;;;;;5146315;27;20061;-58
2022/12/22 06:20:32;;;;;;;58.80;22.77;;;6.60;99.90;;;;;;5144334;27;20072;-58
2022/12/22 06:22:58;;;;;;;54.92;22.45;;;7.00;99.90;;;;;;5123612;27;20047;-58
2022/12/22 06:25:23;;;;;;;53.63;21.85;;;6.70;99.90;;;;;;5135651;27;20051;-58
2022/12/22 06:27:49;;;;;;;49.08;21.27;;;6.40;99.90;;;;;;5136270;27;20047;-58
2022/12/22 06:30:15;;;;;;;56.25;22.67;;;6.70;99.90;;;;;;5135640;27;20058;-58
2022/12/22 06:32:41;;;;;;;63.50;22.10;;;6.50;99.90;;;;;;5117113;27;20047;-58
2022/12/22 06:35:08;;;;;;;52.88;21.00;;;6.50;99.90;;;;;;5136061;27;20088;-57
2022/12/22 06:37:34;;;;;;;58.70;24.33;;;6.80;99.90;;;;;;5135170;27;20088;-57
2022/12/22 06:40:00;;;;;;;83.70;24.13;;;6.50;99.90;;;;;;5136287;27;20051;-57
2022/12/22 06:45:10;;;;;;;109.95;22.90;;;6.50;99.90;;;;;;5136226;27;20126;-58
2022/12/22 06:47:36;;;;;;;120.07;22.52;;;6.40;99.90;;;;;;5116980;27;20075;-58
2022/12/22 06:50:01;;;;;;;126.05;24.90;;;6.70;99.90;;;;;;5135511;27;20522;-58
2022/12/22 06:52:27;;;;;;;176.48;24.75;;;6.70;99.90;;;;;;5136120;27;20039;-57
2022/12/22 06:54:53;;;;;;;62.40;20.05;;;6.80;99.90;;;;;;5137078;27;20039;-58
2022/12/22 06:57:18;;;;;;;51.30;19.00;;;6.60;99.90;;;;;;5156720;27;20066;-58
2022/12/22 06:59:44;;;;;;;54.67;17.92;;;6.40;99.90;;;;;;5143651;27;20058;-58
2022/12/22 07:02:11;;;;;;;54.00;18.17;;;6.50;99.90;;;;;;5145340;27;20039;-58
2022/12/22 07:04:36;;;;;;;50.28;18.23;;;6.40;99.90;;;;;;5145180;27;20047;-58
2022/12/22 07:07:02;;;;;;;54.45;18.80;;;6.90;99.90;;;;;;5146201;27;20120;-58
2022/12/22 07:09:28;;;;;;;55.90;19.30;;;6.70;99.90;;;;;;5144284;27;20054;-57
2022/12/22 07:11:55;;;;;;;58.67;18.73;;;6.50;99.90;;;;;;5144531;27;20088;-58
2022/12/22 07:14:20;;;;;;;52.75;17.80;;;7.00;99.90;;;;;;5146375;27;20414;-58
2022/12/22 07:16:47;;;;;;;50.05;18.42;;;6.40;99.90;;;;;;5142805;27;20038;-58
2022/12/22 07:19:13;;;;;;;52.78;17.52;;;6.60;99.90;;;;;;5144874;27;20104;-58
2022/12/22 07:21:38;;;;;;;57.92;20.30;;;6.60;99.90;;;;;;5125782;27;20045;-57
2022/12/22 07:24:04;;;;;;;49.75;16.52;;;6.70;99.90;;;;;;5145913;27;20039;-58
2022/12/22 07:26:30;;;;;;;48.53;15.80;;;6.80;99.90;;;;;;5156103;27;20095;-57
2022/12/22 07:28:56;;;;;;;45.35;15.57;;;6.70;99.90;;;;;;5155887;27;20050;-58
2022/12/22 07:31:22;;;;;;;46.80;14.80;;;6.20;99.90;;;;;;5156172;27;20442;-58
2022/12/22 07:33:47;;;;;;;44.28;15.57;;;6.20;99.90;;;;;;5155441;27;20064;-58
2022/12/22 07:36:16;;;;;;;45.03;13.98;;;6.60;99.90;;;;;;5155936;27;20057;-58
2022/12/22 07:38:43;;;;;;;48.00;14.02;;;6.60;99.90;;;;;;5155185;27;20617;-59
2022/12/22 07:43:58;;;;;;;44.65;12.95;;;6.60;99.90;;;;;;5155796;27;20129;-58
2022/12/22 07:46:26;;;;;;;42.03;13.90;;;6.10;99.90;;;;;;5155076;27;20083;-58
2022/12/22 07:51:39;;;;;;;38.92;13.88;;;6.60;99.90;;;;;;5155373;27;20073;-58
2022/12/22 07:54:09;;;;;;;37.05;12.88;;;6.20;99.90;;;;;;5155548;27;20138;-58
2022/12/22 07:56:35;;;;;;;33.88;11.43;;;6.10;99.90;;;;;;5139048;27;20078;-58
2022/12/22 07:59:01;;;;;;;33.55;11.35;;;6.30;99.90;;;;;;5134588;27;20043;-58
2022/12/22 08:01:27;;;;;;;36.97;12.35;;;6.20;99.90;;;;;;5134545;27;20043;-58
2022/12/22 08:03:52;;;;;;;34.38;11.93;;;6.30;99.90;;;;;;5134380;28;20077;-58
2022/12/22 08:06:18;;;;;;;35.17;11.88;;;6.30;99.90;;;;;;5099547;28;20122;-57
2022/12/22 08:08:44;;;;;;;31.33;10.98;;;6.20;99.90;;;;;;5134310;28;20039;-58
2022/12/22 08:11:10;;;;;;;30.08;11.52;;;6.60;99.90;;;;;;5133545;28;20118;-58
2022/12/22 08:13:36;;;;;;;36.08;12.60;;;6.20;99.90;;;;;;5134203;28;20078;-57
2022/12/22 08:16:03;;;;;;;34.75;12.63;;;6.50;99.90;;;;;;5134494;28;20043;-57
2022/12/22 08:18:30;;;;;;;39.25;12.30;;;6.50;99.90;;;;;;5134682;28;20055;-57
2022/12/22 08:20:55;;;;;;;34.70;11.73;;;6.50;99.90;;;;;;5151286;27;20077;-58
2022/12/22 08:23:21;;;;;;;33.47;10.20;;;6.30;99.90;;;;;;5154983;27;20051;-57
2022/12/22 08:25:51;;;;;;;58.03;11.98;;;6.50;99.90;;;;;;5154906;27;20049;-58
2022/12/22 08:28:16;;;;;;;35.15;10.13;;;6.20;99.90;;;;;;5155851;27;20049;-58
2022/12/22 08:30:44;;;;;;;33.38;11.15;;;6.60;99.90;;;;;;5149054;27;20043;-57
2022/12/22 08:33:09;;;;;;;33.88;9.88;;;6.30;99.90;;;;;;5142732;27;20046;-58
2022/12/22 08:35:35;;;;;;;32.92;10.95;;;6.20;99.90;;;;;;5138516;27;20043;-58
2022/12/22 08:38:01;;;;;;;34.05;9.60;;;6.20;99.90;;;;;;5119367;27;20070;-57
2022/12/22 08:40:31;;;;;;;31.92;9.63;;;6.30;99.90;;;;;;5138858;27;20054;-58
2022/12/22 08:43:02;;;;;;;28.70;9.85;;;6.30;99.90;;;;;;5137531;27;20054;-58
2022/12/22 08:45:28;;;;;;;28.38;9.65;;;6.20;99.90;;;;;;5138337;27;20103;-58
2022/12/22 08:47:53;;;;;;;30.38;10.13;;;6.10;99.90;;;;;;5119837;27;20040;-57
2022/12/22 08:50:19;;;;;;;34.42;10.43;;;6.20;99.90;;;;;;5119674;27;20043;-58
2022/12/22 08:52:47;;;;;;;32.25;10.57;;;6.50;99.90;;;;;;5138623;27;20039;-58
2022/12/22 08:55:13;;;;;;;28.50;9.32;;;6.50;99.90;;;;;;5142806;27;20046;-58
2022/12/22 08:57:38;;;;;;;31.20;10.48;;;6.20;99.90;;;;;;5159128;27;20035;-57
2022/12/22 09:00:07;;;;;;;35.05;9.77;;;6.40;99.90;;;;;;5158064;27;20075;-57
2022/12/22 09:02:33;;;;;;;29.23;10.13;;;6.30;99.90;;;;;;5159149;27;20068;-58
2022/12/22 09:04:59;;;;;;;21.35;8.80;;;6.70;99.90;;;;;;5158892;27;20043;-57
2022/12/22 09:07:25;;;;;;;22.33;8.18;;;6.20;99.90;;;;;;5158504;27;20046;-58
2022/12/22 09:09:50;;;;;;;22.40;8.10;;;6.50;99.90;;;;;;5140404;27;20047;-58
2022/12/22 09:12:16;;;;;;;21.10;8.80;;;6.20;99.90;;;;;;5157278;27;20390;-57
2022/12/22 09:14:42;;;;;;;28.05;8.52;;;6.20;99.90;;;;;;5158727;27;20039;-57
2022/12/22 09:17:08;;;;;;;27.17;7.80;;;6.50;99.90;;;;;;5158291;27;20050;-56
2022/12/22 09:19:34;;;;;;;23.67;8.05;;;6.00;99.90;;;;;;5159068;27;20049;-56
2022/12/22 09:21:59;;;;;;;22.23;8.18;;;6.30;99.90;;;;;;5150189;27;20108;-56
2022/12/22 09:24:25;;;;;;;19.33;7.55;;;6.20;99.90;;;;;;5149902;27;20039;-57
2022/12/22 09:26:51;;;;;;;21.92;8.02;;;6.30;99.90;;;;;;5159079;27;20043;-57
2022/12/22 09:29:17;;;;;;;18.75;6.75;;;6.00;99.90;;;;;;5154584;27;20609;-56
2022/12/22 09:31:43;;;;;;;23.08;8.40;;;6.20;99.90;;;;;;5158866;27;20101;-56
2022/12/22 09:34:09;;;;;;;19.08;8.15;;;6.20;99.90;;;;;;5157986;27;20500;-56
2022/12/22 09:36:39;;;;;;;15.45;7.22;;;6.50;99.90;;;;;;5158193;27;20721;-57
2022/12/22 09:39:07;;;;;;;17.92;7.50;;;6.20;99.90;;;;;;5157853;27;20053;-57
2022/12/22 09:41:52;;;;;;;15.20;7.13;;;6.20;99.90;;;;;;5154109;27;20074;-57
2022/12/22 09:44:39;;;;;;;17.17;7.18;;;6.60;99.90;;;;;;5148109;27;20512;-57
2022/12/22 09:47:34;;;;;;;15.88;6.80;;;6.30;99.90;;;;;;5146771;27;20046;-57
2022/12/22 09:50:01;;;;;;;17.70;7.82;;;6.50;99.90;;;;;;5146355;27;20356;-57
2022/12/22 09:52:42;;;;;;;18.42;8.48;;;6.50;99.90;;;;;;5147198;27;20039;-56
2022/12/22 09:55:23;;;;;;;20.58;8.02;;;6.90;99.90;;;;;;5146632;27;20494;-57
2022/12/22 09:57:50;;;;;;;16.83;7.78;;;6.70;99.90;;;;;;5147983;27;20028;-57
2022/12/22 10:00:18;;;;;;;17.27;8.30;;;6.60;99.90;;;;;;5111712;27;20138;-57
2022/12/22 10:03:29;;;;;;;16.48;7.68;;;7.00;99.90;;;;;;5126339;27;20047;-57
2022/12/22 10:06:13;;;;;;;18.92;8.43;;;6.80;99.90;;;;;;5102810;27;20130;-58
2022/12/22 10:08:42;;;;;;;18.95;7.60;;;7.00;99.90;;;;;;5145229;27;20134;-56
2022/12/22 10:11:17;;;;;;;14.88;8.05;;;7.10;99.90;;;;;;5144860;27;20027;-57
2022/12/22 10:13:43;;;;;;;16.40;7.97;;;7.00;99.90;;;;;;5145025;27;20072;-56
2022/12/22 10:16:25;;;;;;;20.30;7.45;;;6.90;99.90;;;;;;5147879;27;20038;-57
2022/12/22 10:19:00;;;;;;;20.57;7.63;;;6.80;99.90;;;;;;5148399;27;20043;-57
2022/12/22 10:21:26;;;;;;;19.13;7.63;;;6.90;99.90;;;;;;5147610;27;20285;-57
2022/12/22 10:23:52;;;;;;;14.18;6.70;;;7.30;99.90;;;;;;5150468;27;20073;-57
2022/12/22 10:26:25;;;;;;;18.05;8.15;;;7.30;99.90;;;;;;5143059;27;20103;-57
2022/12/22 10:29:11;;;;;;;22.50;7.68;;;7.20;99.90;;;;;;5139311;27;20139;-57
2022/12/22 10:31:56;;;;;;;19.42;7.50;;;7.10;99.90;;;;;;5138496;27;20071;-57
2022/12/22 10:34:22;;;;;;;15.95;6.57;;;7.10;99.90;;;;;;5137688;27;20067;-57
2022/12/22 10:36:50;;;;;;;19.50;6.80;;;7.30;99.90;;;;;;5138597;27;20050;-57
2022/12/22 10:39:22;;;;;;;16.02;7.05;;;7.20;99.90;;;;;;5140118;27;20740;-56
2022/12/22 10:41:50;;;;;;;14.88;5.93;;;7.50;99.90;;;;;;5139150;27;20054;-57
2022/12/22 10:44:16;;;;;;;16.42;5.40;;;7.60;99.90;;;;;;5140258;27;20122;-57
2022/12/22 10:46:51;;;;;;;17.08;4.95;;;7.40;99.90;;;;;;5139443;27;20086;-57
2022/12/22 10:49:32;;;;;;;11.70;5.75;;;7.30;99.90;;;;;;5140022;27;20031;-56
2022/12/22 10:52:24;;;;;;;12.50;5.28;;;7.40;99.90;;;;;;5140009;27;20035;-56
2022/12/22 10:54:50;;;;;;;13.10;4.90;;;7.30;99.90;;;;;;5140848;27;20043;-58
2022/12/22 10:57:16;;;;;;;16.58;6.05;;;7.30;99.90;;;;;;5160143;27;20061;-57
2022/12/22 10:59:52;;;;;;;14.43;4.63;;;7.50;99.90;;;;;;5156307;27;20064;-58
2022/12/22 11:02:21;;;;;;;14.23;3.90;;;7.60;99.90;;;;;;5146169;27;20054;-57
2022/12/22 11:04:51;;;;;;;14.65;4.03;;;7.40;99.90;;;;;;5139369;27;20038;-57
2022/12/22 11:07:17;;;;;;;9.75;3.20;;;7.70;99.90;;;;;;5139082;27;20050;-57
2022/12/22 11:09:43;;;;;;;14.20;3.75;;;7.70;99.90;;;;;;5139477;27;20035;-58
2022/12/22 11:12:25;;;;;;;9.98;3.42;;;7.60;99.90;;;;;;5138293;27;20398;-57
2022/12/22 11:15:07;;;;;;;13.52;3.88;;;7.70;99.90;;;;;;5121054;27;20054;-57
2022/12/22 11:17:46;;;;;;;12.10;3.53;;;7.70;99.90;;;;;;5139195;27;20051;-56
2022/12/22 11:20:21;;;;;;;13.70;3.53;;;7.80;99.90;;;;;;5138902;27;20039;-56
2022/12/22 11:23:07;;;;;;;10.07;3.00;;;7.90;99.90;;;;;;5139625;27;20047;-57
2022/12/22 11:26:07;;;;;;;10.35;3.25;;;7.80;99.90;;;;;;5138774;27;20084;-57
2022/12/22 11:29:09;;;;;;;13.43;3.35;;;7.90;99.90;;;;;;5139214;27;20122;-57
2022/12/22 11:31:53;;;;;;;14.38;3.72;;;8.10;99.90;;;;;;5139528;27;20051;-57
2022/12/22 11:34:39;;;;;;;13.57;3.45;;;8.00;99.90;;;;;;5138509;27;20135;-55
2022/12/22 11:37:11;;;;;;;13.45;4.30;;;8.00;99.90;;;;;;5139132;27;20462;-57
2022/12/22 11:39:55;;;;;;;11.67;3.23;;;8.00;99.90;;;;;;5139471;27;20119;-56
2022/12/22 11:42:29;;;;;;;14.07;2.88;;;8.00;99.90;;;;;;5138147;27;20285;-57
2022/12/22 11:45:32;;;;;;;13.95;3.28;;;8.00;99.90;;;;;;5139219;27;20058;-56
2022/12/22 11:48:54;;;;;;;12.27;3.15;;;8.10;99.90;;;;;;5106908;27;20125;-56
2022/12/22 11:52:09;;;;;;;8.90;2.80;;;8.30;99.90;;;;;;5034402;28;20049;-58
2022/12/22 11:55:02;;;;;;;16.50;3.42;;;8.20;99.90;;;;;;5138670;27;20039;-57
2022/12/22 11:57:40;;;;;;;14.65;4.20;;;8.40;99.90;;;;;;5139257;27;20043;-57
2022/12/22 12:00:15;;;;;;;13.55;3.20;;;8.30;99.90;;;;;;5137320;27;20118;-57
2022/12/22 12:02:56;;;;;;;13.75;3.60;;;8.20;99.90;;;;;;5138926;27;20051;-57
2022/12/22 12:05:42;;;;;;;13.50;3.80;;;8.30;99.90;;;;;;5138539;28;20449;-57
2022/12/22 12:08:15;;;;;;;13.10;3.90;;;8.30;99.90;;;;;;5141810;27;20122;-58
2022/12/22 12:10:55;;;;;;;13.57;3.95;;;8.30;99.90;;;;;;5143231;27;20606;-56
2022/12/22 12:13:39;;;;;;;11.70;4.78;;;8.40;99.90;;;;;;5144376;27;20399;-56
2022/12/22 12:16:24;;;;;;;15.27;4.20;;;8.30;99.90;;;;;;5144930;27;20046;-57
2022/12/22 12:18:58;;;;;;;18.27;4.90;;;8.30;99.90;;;;;;5153315;27;20031;-57
2022/12/22 12:21:49;;;;;;;12.77;4.22;;;8.40;99.90;;;;;;5154830;27;20047;-57
2022/12/22 12:24:29;;;;;;;12.88;4.00;;;8.30;99.90;;;;;;5145013;27;20053;-57
2022/12/22 12:27:08;;;;;;;11.82;3.60;;;8.40;99.90;;;;;;5145467;27;20114;-57
2022/12/22 12:29:46;;;;;;;15.35;4.35;;;8.30;99.90;;;;;;5144898;27;20496;-57
2022/12/22 12:32:20;;;;;;;16.13;3.95;;;8.30;99.90;;;;;;5145455;27;20051;-57
2022/12/22 12:35:02;;;;;;;15.70;3.78;;;8.40;99.90;;;;;;5144752;27;20043;-57
2022/12/22 12:37:32;;;;;;;15.10;3.83;;;8.20;99.90;;;;;;5144946;27;20070;-57
2022/12/22 12:39:58;;;;;;;12.80;3.40;;;8.30;99.90;;;;;;5146353;27;20301;-57
2022/12/22 12:42:36;;;;;;;13.77;3.53;;;8.30;99.90;;;;;;5154636;27;20046;-57
2022/12/22 12:45:04;;;;;;;15.48;3.75;;;8.10;99.90;;;;;;5119429;27;20074;-55
2022/12/22 12:47:34;;;;;;;15.02;4.00;;;8.10;99.90;;;;;;5152144;27;20046;-56
2022/12/22 12:50:02;;;;;;;14.25;4.00;;;8.30;99.90;;;;;;5158737;27;20074;-56
2022/12/22 12:52:42;;;;;;;18.75;4.20;;;7.90;99.90;;;;;;5166419;27;20039;-57
2022/12/22 12:55:37;;;;;;;12.43;3.42;;;8.10;99.90;;;;;;5160893;27;20109;-57
2022/12/22 12:58:04;;;;;;;12.07;4.57;;;8.00;99.90;;;;;;5108200;27;20058;-57
2022/12/22 13:00:33;;;;;;;13.80;4.72;;;7.90;99.90;;;;;;5145087;27;20047;-57
2022/12/22 13:02:59;;;;;;;12.07;3.80;;;8.10;99.90;;;;;;5151543;27;20027;-58
2022/12/22 13:05:52;;;;;;;15.88;4.20;;;7.90;99.90;;;;;;5152853;27;20027;-57
2022/12/22 13:08:31;;;;;;;14.68;4.32;;;8.10;99.90;;;;;;5153513;27;20498;-57
2022/12/22 13:10:57;;;;;;;9.75;4.18;;;8.00;99.90;;;;;;5153984;27;20043;-57
2022/12/22 13:13:25;;;;;;;17.15;4.22;;;7.90;99.90;;;;;;5152710;27;20054;-57
2022/12/22 13:16:06;;;;;;;15.65;5.22;;;8.10;99.90;;;;;;5148597;27;20556;-57
2022/12/22 13:18:34;;;;;;;13.90;3.80;;;8.00;99.90;;;;;;5150040;27;20050;-56
2022/12/22 13:21:04;;;;;;;12.68;4.28;;;8.00;99.90;;;;;;5152164;27;20526;-57
2022/12/22 13:23:35;;;;;;;12.27;4.13;;;8.20;99.90;;;;;;5162452;27;20067;-57
2022/12/22 13:26:11;;;;;;;13.45;3.45;;;8.00;99.90;;;;;;5162045;27;20193;-56
2022/12/22 13:28:41;;;;;;;14.27;3.63;;;8.10;99.90;;;;;;5161660;27;20094;-54
2022/12/22 13:31:18;;;;;;;14.98;3.38;;;8.00;99.90;;;;;;5161959;27;20038;-57
2022/12/22 13:33:45;;;;;;;10.85;4.03;;;8.30;99.90;;;;;;5143326;27;20130;-57
2022/12/22 13:36:25;;;;;;;16.75;3.55;;;8.00;99.90;;;;;;5162147;27;20078;-57
2022/12/22 13:39:10;;;;;;;21.95;3.70;;;8.40;99.90;;;;;;5161897;27;20536;-56
2022/12/22 13:41:39;;;;;;;16.17;3.70;;;8.00;99.90;;;;;;5142510;27;20042;-57
2022/12/22 13:44:09;;;;;;;14.40;4.15;;;8.20;99.90;;;;;;5161945;27;20275;-57
2022/12/22 13:46:37;;;;;;;15.75;4.68;;;8.10;99.90;;;;;;5160993;27;20075;-58
2022/12/22 13:49:06;;;;;;;14.73;4.03;;;8.30;99.90;;;;;;5162297;27;20057;-57
2022/12/22 13:51:36;;;;;;;16.27;4.78;;;8.10;99.90;;;;;;5160891;27;20070;-57
2022/12/22 13:54:24;;;;;;;12.65;3.92;;;8.10;99.90;;;;;;5161528;27;20078;-57
2022/12/22 13:56:53;;;;;;;10.95;3.92;;;8.10;99.90;;;;;;5142487;27;20084;-57
2022/12/22 13:59:32;;;;;;;14.75;3.75;;;8.10;99.90;;;;;;5139907;27;20042;-57
2022/12/22 14:02:06;;;;;;;10.23;3.63;;;8.10;99.90;;;;;;5140925;27;20429;-57
2022/12/22 14:04:34;;;;;;;11.60;4.18;;;8.10;99.90;;;;;;5140012;27;20068;-56
2022/12/22 14:07:14;;;;;;;11.77;4.45;;;8.10;99.90;;;;;;5121577;27;20095;-57
2022/12/22 14:09:58;;;;;;;16.63;4.53;;;8.30;99.90;;;;;;5140356;27;20039;-57
2022/12/22 14:12:28;;;;;;;15.80;4.65;;;8.40;99.90;;;;;;5139093;27;20076;-57
2022/12/22 14:14:56;;;;;;;15.40;4.75;;;8.10;99.90;;;;;;5151662;27;20035;-57
2022/12/22 14:17:28;;;;;;;15.50;4.85;;;8.40;99.90;;;;;;5160889;27;20110;-57
2022/12/22 14:19:59;;;;;;;16.73;7.13;;;8.10;99.90;;;;;;5159992;27;20054;-57
2022/12/22 14:22:27;;;;;;;11.63;5.03;;;8.40;99.90;;;;;;5141632;27;20078;-56
2022/12/22 14:25:15;;;;;;;13.82;4.90;;;8.40;99.90;;;;;;5140403;27;20051;-57
2022/12/22 14:27:47;;;;;;;11.55;4.40;;;8.50;99.90;;;;;;5159619;27;20062;-57
2022/12/22 14:30:35;;;;;;;12.52;4.80;;;8.10;99.90;;;;;;5160597;27;20060;-57
2022/12/22 14:33:25;;;;;;;14.60;4.97;;;8.40;99.90;;;;;;5159426;27;20049;-57
2022/12/22 14:35:51;;;;;;;12.73;4.72;;;8.30;99.90;;;;;;5139687;27;20074;-56
2022/12/22 14:38:25;;;;;;;19.05;3.83;;;8.10;99.90;;;;;;5120630;27;20035;-57
2022/12/22 14:40:52;;;;;;;12.25;4.55;;;8.30;99.90;;;;;;5139924;27;20043;-57
2022/12/22 14:43:18;;;;;;;14.05;4.15;;;8.30;99.90;;;;;;5139605;27;20047;-57
2022/12/22 14:45:49;;;;;;;16.77;3.83;;;8.20;99.90;;;;;;5138989;27;20567;-57
2022/12/22 14:48:30;;;;;;;10.83;4.40;;;8.30;99.90;;;;;;5139849;27;20074;-55
2022/12/22 14:50:56;;;;;;;12.20;3.80;;;8.30;99.90;;;;;;5139095;27;20031;-57
2022/12/22 14:53:35;;;;;;;9.80;3.47;;;8.20;99.90;;;;;;5139621;27;20053;-56
2022/12/22 14:56:00;;;;;;;10.85;2.70;;;8.00;99.90;;;;;;5150914;27;20050;-56
2022/12/22 14:58:37;;;;;;;8.80;3.20;;;8.30;99.90;;;;;;5158951;27;20050;-57
2022/12/22 15:01:15;;;;;;;15.15;3.75;;;8.20;99.90;;;;;;5160010;27;20477;-56
2022/12/22 15:03:41;;;;;;;11.68;3.78;;;8.20;99.90;;;;;;5158900;27;20106;-57
2022/12/22 15:06:25;;;;;;;10.52;2.50;;;8.20;99.90;;;;;;5159901;27;20122;-57
2022/12/22 15:08:54;;;;;;;8.20;2.50;;;8.00;99.90;;;;;;5159831;27;20066;-56
2022/12/22 15:11:22;;;;;;;8.10;2.85;;;8.00;99.90;;;;;;5139875;27;20114;-57
2022/12/22 15:13:50;;;;;;;9.05;2.47;;;8.20;99.90;;;;;;5159863;27;20063;-57
2022/12/22 15:16:18;;;;;;;9.85;2.80;;;8.10;99.90;;;;;;5157510;27;20581;-57
2022/12/22 15:18:45;;;;;;;12.25;2.50;;;8.10;99.90;;;;;;5159155;27;20038;-56
2022/12/22 15:21:13;;;;;;;11.55;2.50;;;8.10;99.90;;;;;;5158871;27;20034;-57
2022/12/22 15:23:39;;;;;;;13.57;2.45;;;8.10;99.90;;;;;;5159221;27;20031;-57
2022/12/22 15:26:05;;;;;;;9.88;2.60;;;8.10;99.90;;;;;;5159651;27;20050;-57
2022/12/22 15:28:31;;;;;;;12.27;3.03;;;8.10;99.90;;;;;;5159482;27;20456;-58
2022/12/22 15:30:58;;;;;;;12.68;2.67;;;8.00;99.90;;;;;;5160378;27;20069;-58
2022/12/22 15:33:24;;;;;;;13.38;3.10;;;7.90;99.90;;;;;;5158740;27;20035;-54
2022/12/22 15:35:50;;;;;;;16.98;3.72;;;8.10;99.90;;;;;;5159764;27;20099;-57
2022/12/22 15:38:18;;;;;;;10.32;3.38;;;7.80;99.90;;;;;;5158912;27;20050;-57
2022/12/22 15:40:44;;;;;;;12.93;3.90;;;8.00;99.90;;;;;;5141620;27;20111;-57
2022/12/22 15:43:10;;;;;;;12.05;3.50;;;7.90;99.90;;;;;;5158600;27;20398;-57
2022/12/22 15:45:37;;;;;;;10.65;3.28;;;7.90;99.90;;;;;;5159319;27;20050;-57
2022/12/22 15:48:05;;;;;;;10.07;4.13;;;7.90;99.90;;;;;;5141305;27;20062;-57
2022/12/22 15:50:38;;;;;;;15.77;4.30;;;7.70;99.90;;;;;;5135862;27;20043;-57
2022/12/22 15:53:04;;;;;;;12.07;3.92;;;7.70;99.90;;;;;;5159844;27;20053;-57
2022/12/22 15:55:31;;;;;;;13.20;4.60;;;7.70;99.90;;;;;;5132586;27;20047;-57
2022/12/22 15:57:58;;;;;;;11.02;4.22;;;7.80;99.90;;;;;;5120302;27;20050;-55
2022/12/22 16:00:24;;;;;;;16.33;4.75;;;7.60;99.90;;;;;;5138361;27;20039;-57
2022/12/22 16:02:50;;;;;;;14.35;5.53;;;7.60;99.90;;;;;;5138423;27;20039;-56
2022/12/22 16:05:16;;;;;;;10.10;5.28;;;7.80;99.90;;;;;;5103238;28;20043;-57
2022/12/22 16:07:43;;;;;;;16.02;5.72;;;7.60;99.90;;;;;;5137394;28;20095;-57
2022/12/22 16:10:29;;;;;;;16.38;6.55;;;7.50;99.90;;;;;;5139025;28;20035;-57
2022/12/22 16:13:01;;;;;;;16.13;6.82;;;7.60;99.90;;;;;;5137709;28;20611;-57
2022/12/22 16:15:30;;;;;;;15.35;7.47;;;7.40;99.90;;;;;;5138490;28;20050;-57
2022/12/22 16:18:00;;;;;;;19.42;8.07;;;7.60;99.90;;;;;;5138267;28;20040;-56
2022/12/22 16:20:29;;;;;;;17.30;9.23;;;7.40;99.90;;;;;;5137648;28;20051;-57
2022/12/22 16:22:55;;;;;;;17.92;9.07;;;7.40;99.90;;;;;;5138566;28;20039;-56
2022/12/22 16:25:26;;;;;;;19.30;10.15;;;7.40;99.90;;;;;;5137460;28;20047;-57
2022/12/22 16:27:53;;;;;;;16.77;9.60;;;7.50;99.90;;;;;;5138657;28;20054;-57
2022/12/22 16:30:22;;;;;;;20.13;9.55;;;7.50;99.90;;;;;;5119603;28;20035;-57
2022/12/22 16:32:48;;;;;;;19.48;10.30;;;7.30;99.90;;;;;;5138470;28;20046;-55
2022/12/22 16:35:17;;;;;;;18.20;10.07;;;7.50;99.90;;;;;;5138630;28;20039;-58
2022/12/22 16:37:44;;;;;;;16.75;9.98;;;7.30;99.90;;;;;;5137307;28;20039;-58
2022/12/22 16:40:11;;;;;;;19.00;9.52;;;7.50;99.90;;;;;;5141559;27;20098;-57
2022/12/22 16:42:38;;;;;;;19.15;11.88;;;7.40;99.90;;;;;;5151558;27;20038;-57